Detall de PIREP

Printer-friendly versionPDF version

[2008/09/26 20:33:00]
Flight IATA:CT3111
Pilot Number:037
Company ICAO:CAT
Aircraft Type:AT72/F
PAX:44
Departing Airport: LEPA
Destination Airport: LEBL
Alternate Airport:LEPA
Online: VATSIM
Route:ESPOR W2 NEPAL
Flight Level:FL160
No Slew and time accel
No pause
Crash detect
Detect pilot in Cockpit between each 30 and 45 minutes
20:33 Zero fuel Weight: 40068 Lbs, Fuel Weight: 3183 Lbs
20:33 VATSIM:LEPA 262000Z 04005KT 9999 FEW025 BKN100 18/12 Q1022 NOSIG
20:33 VATSIM:LEBL 262000Z 36005KT 280V070 9999 SCT025 BKN075 16/13 Q1023 NOSIG
20:37 Parking Brakes off
20:45 Take-off
20:45 Take off Weight: 43189 Lbs
20:45 Wind: 038? @ 005 Knots Heading: 055?
20:45 POS N39? 32? 52?? E002? 44? 43??
20:45 Flaps:1 at 126 Knots
20:45 Gear Up: 127 Knots
20:45 Flaps:0 at 144 Knots
20:54 TOC
20:54 Fuel Weight: 2746 Lb
21:00 Wind:025?@012 Knots Heading: 343? Ground Speed: 300 Knots
Altitude 16286 ft
21:00 TOD
21:00 Fuel Weight: 2496 Lb
21:15 Wind:348?@004 Knots Heading: 027? Ground Speed: 222 Knots Altitude 2073 ft
21:19 Flaps:1 at 179 Knots
21:20 Flaps:2 at 155 Knots
21:20 Gear Down: 128 Knots
21:20 TouchDown:Rate -412 ft/min Speed: 87 Knots
21:21 VATSIM:LEBL 262100Z 33005KT 9999 SCT025 BKN080 16/13 Q1024 NOSIG
21:21 Land
21:21 Wind:333?@005 Knots
21:21 Heading: 016?
21:21 Flight Duration: 00:36
21:21 Landing Weight: 42286 Lbs
21:21 POS N41? 17? 29?? E002? 05? 11??
21:25 Parking brakes on
21:25 Block to Block Duration: 00:48
21:25 Final Fuel: 2186 Lbls
21:25 Spent Fuel: 996 Lbls
21:25 Flight Length: 141 NM
21:25 TOD Land Length: 77 NM

Exportar CSV

Powered by Drupal - Modified by Danger4k